AAL830 KCLT-KCHS
Flight info
| Callsign | AAL830 |
|---|---|
| Flight time | 0h 41m |
| Altitude | 22000 |
| Route | KWEEN5 UNJAM OSPRI7 |
| Aircraft | B738/M-SDE2E3FGHIRWXY/LB1 |
Departure
| Time | 2026-04-26 15:12 |
|---|---|
| Airport | Charlotte Douglas International Airport (KCLT) |
Arrival
| Time | 2026-04-26 15:53 |
|---|---|
| Airport | Charleston International Airport (KCHS) |
| Time | Latitude | Longitude | Altitude | Speed | Heading |
|---|---|---|---|---|---|
| 2026-04-26 14:49 | 35.21896 | -80.94163 | 759 ft | 0 kts | 268° |
| 2026-04-26 15:01 | 35.21896 | -80.94161 | 759 ft | 1 kts | 268° |
| 2026-04-26 15:01 | 35.21897 | -80.94143 | 759 ft | 3 kts | 268° |
| 2026-04-26 15:01 | 35.21897 | -80.94120 | 759 ft | 3 kts | 268° |
| 2026-04-26 15:01 | 35.21898 | -80.94095 | 759 ft | 3 kts | 268° |
| 2026-04-26 15:02 | 35.21898 | -80.94091 | 759 ft | 0 kts | 268° |
| 2026-04-26 15:05 | 35.21891 | -80.94106 | 759 ft | 3 kts | 212° |
| 2026-04-26 15:05 | 35.21869 | -80.94089 | 759 ft | 6 kts | 114° |
| 2026-04-26 15:06 | 35.21853 | -80.94015 | 759 ft | 12 kts | 104° |
| 2026-04-26 15:06 | 35.21807 | -80.93927 | 759 ft | 11 kts | 136° |
| 2026-04-26 15:06 | 35.21746 | -80.93858 | 759 ft | 14 kts | 137° |
| 2026-04-26 15:06 | 35.21668 | -80.93771 | 759 ft | 17 kts | 137° |
| 2026-04-26 15:07 | 35.21448 | -80.93657 | 759 ft | 19 kts | 174° |
| 2026-04-26 15:07 | 35.21322 | -80.93646 | 759 ft | 19 kts | 176° |
| 2026-04-26 15:07 | 35.21187 | -80.93634 | 759 ft | 18 kts | 176° |
| 2026-04-26 15:08 | 35.21073 | -80.93626 | 759 ft | 15 kts | 176° |
| 2026-04-26 15:08 | 35.20974 | -80.93618 | 759 ft | 15 kts | 176° |
| 2026-04-26 15:08 | 35.20857 | -80.93608 | 759 ft | 16 kts | 176° |
| 2026-04-26 15:08 | 35.20752 | -80.93599 | 759 ft | 16 kts | 176° |
| 2026-04-26 15:09 | 35.20634 | -80.93588 | 759 ft | 16 kts | 175° |
| 2026-04-26 15:09 | 35.20524 | -80.93577 | 759 ft | 15 kts | 175° |
| 2026-04-26 15:09 | 35.20429 | -80.93568 | 759 ft | 12 kts | 176° |
| 2026-04-26 15:09 | 35.20346 | -80.93563 | 759 ft | 13 kts | 178° |
| 2026-04-26 15:10 | 35.20244 | -80.93558 | 759 ft | 16 kts | 178° |
| 2026-04-26 15:10 | 35.20178 | -80.93553 | 759 ft | 12 kts | 173° |
| 2026-04-26 15:10 | 35.20130 | -80.93500 | 759 ft | 4 kts | 95° |
| 2026-04-26 15:10 | 35.20129 | -80.93478 | 759 ft | 1 kts | 91° |
| 2026-04-26 15:11 | 35.20129 | -80.93476 | 759 ft | 0 kts | 91° |
| 2026-04-26 15:11 | 35.20133 | -80.93455 | 759 ft | 6 kts | 64° |
| 2026-04-26 15:11 | 35.20221 | -80.93426 | 759 ft | 23 kts | 358° |
| 2026-04-26 15:11 | 35.20528 | -80.93452 | 759 ft | 78 kts | 357° |
| 2026-04-26 15:12 | 35.21344 | -80.93508 | 772 ft | 153 kts | 0° |
| 2026-04-26 15:12 | 35.22545 | -80.93562 | 1361 ft | 184 kts | 6° |
| 2026-04-26 15:12 | 35.23721 | -80.93211 | 2832 ft | 161 kts | 19° |
| 2026-04-26 15:12 | 35.24675 | -80.92907 | 4383 ft | 131 kts | 15° |
| 2026-04-26 15:13 | 35.25589 | -80.92577 | 4804 ft | 150 kts | 18° |
| 2026-04-26 15:13 | 35.26815 | -80.92113 | 4386 ft | 235 kts | 20° |
| 2026-04-26 15:13 | 35.28209 | -80.91043 | 5182 ft | 211 kts | 45° |
| 2026-04-26 15:13 | 35.28890 | -80.89642 | 5687 ft | 187 kts | 68° |
| 2026-04-26 15:14 | 35.28992 | -80.88016 | 5539 ft | 201 kts | 94° |
| 2026-04-26 15:14 | 35.28354 | -80.86440 | 5281 ft | 219 kts | 129° |
| 2026-04-26 15:14 | 35.27024 | -80.85370 | 4987 ft | 237 kts | 159° |
| 2026-04-26 15:14 | 35.25343 | -80.85213 | 5602 ft | 247 kts | 178° |
| 2026-04-26 15:15 | 35.23712 | -80.85270 | 7204 ft | 239 kts | 183° |
| 2026-04-26 15:15 | 35.21942 | -80.85550 | 7874 ft | 261 kts | 189° |
| 2026-04-26 15:15 | 35.20185 | -80.85979 | 9085 ft | 270 kts | 192° |
| 2026-04-26 15:15 | 35.18149 | -80.86279 | 9089 ft | 323 kts | 184° |
| 2026-04-26 15:16 | 35.15919 | -80.86476 | 9424 ft | 305 kts | 183° |
| 2026-04-26 15:16 | 35.13986 | -80.86487 | 10304 ft | 258 kts | 178° |
| 2026-04-26 15:16 | 35.12340 | -80.86462 | 10952 ft | 223 kts | 179° |
| 2026-04-26 15:16 | 35.11269 | -80.86484 | 11341 ft | 239 kts | 180° |
| 2026-04-26 15:17 | 35.09541 | -80.86550 | 12094 ft | 254 kts | 180° |
| 2026-04-26 15:17 | 35.08349 | -80.86554 | 12633 ft | 265 kts | 179° |
| 2026-04-26 15:17 | 35.05663 | -80.86494 | 13178 ft | 311 kts | 178° |
| 2026-04-26 15:17 | 35.03405 | -80.86515 | 13783 ft | 338 kts | 180° |
| 2026-04-26 15:18 | 35.00958 | -80.86404 | 14384 ft | 362 kts | 178° |
| 2026-04-26 15:18 | 34.98409 | -80.86254 | 15127 ft | 381 kts | 177° |
| 2026-04-26 15:18 | 34.95707 | -80.85971 | 15840 ft | 398 kts | 175° |
| 2026-04-26 15:18 | 34.92923 | -80.85620 | 16792 ft | 404 kts | 176° |
| 2026-04-26 15:19 | 34.90200 | -80.85417 | 17819 ft | 376 kts | 178° |
| 2026-04-26 15:19 | 34.87586 | -80.85173 | 18168 ft | 388 kts | 177° |
| 2026-04-26 15:19 | 34.84816 | -80.84871 | 18559 ft | 406 kts | 176° |
| 2026-04-26 15:19 | 34.82002 | -80.84524 | 19582 ft | 405 kts | 176° |
| 2026-04-26 15:20 | 34.79221 | -80.84146 | 20624 ft | 392 kts | 176° |
| 2026-04-26 15:20 | 34.76585 | -80.83753 | 21222 ft | 377 kts | 176° |
| 2026-04-26 15:20 | 34.73940 | -80.83470 | 21865 ft | 381 kts | 181° |
| 2026-04-26 15:20 | 34.71243 | -80.83329 | 22260 ft | 395 kts | 182° |
| 2026-04-26 15:21 | 34.68465 | -80.83283 | 22490 ft | 400 kts | 184° |
| 2026-04-26 15:21 | 34.65656 | -80.83217 | 22706 ft | 408 kts | 181° |
| 2026-04-26 15:21 | 34.62839 | -80.83172 | 22893 ft | 412 kts | 186° |
| 2026-04-26 15:21 | 34.59928 | -80.83138 | 22901 ft | 425 kts | 182° |
| 2026-04-26 15:22 | 34.56965 | -80.82944 | 23270 ft | 424 kts | 181° |
| 2026-04-26 15:22 | 34.54083 | -80.82791 | 23492 ft | 406 kts | 182° |
| 2026-04-26 15:22 | 34.51171 | -80.82680 | 23433 ft | 429 kts | 182° |
| 2026-04-26 15:22 | 34.48170 | -80.82457 | 23762 ft | 427 kts | 180° |
| 2026-04-26 15:23 | 34.45283 | -80.82070 | 24017 ft | 408 kts | 177° |
| 2026-04-26 15:23 | 34.42508 | -80.81653 | 23835 ft | 398 kts | 179° |
| 2026-04-26 15:23 | 34.39783 | -80.81347 | 23751 ft | 389 kts | 180° |
| 2026-04-26 15:23 | 34.37124 | -80.81061 | 23773 ft | 377 kts | 180° |
| 2026-04-26 15:24 | 34.34574 | -80.80643 | 23858 ft | 369 kts | 171° |
| 2026-04-26 15:24 | 34.32227 | -80.79384 | 23756 ft | 370 kts | 151° |
| 2026-04-26 15:24 | 34.30029 | -80.78063 | 23826 ft | 345 kts | 172° |
| 2026-04-26 15:24 | 34.27715 | -80.78093 | 23911 ft | 334 kts | 201° |
| 2026-04-26 15:25 | 34.25587 | -80.79281 | 23921 ft | 335 kts | 217° |
| 2026-04-26 15:25 | 34.23686 | -80.80866 | 23440 ft | 334 kts | 219° |
| 2026-04-26 15:25 | 34.21587 | -80.82168 | 22848 ft | 345 kts | 208° |
| 2026-04-26 15:25 | 34.19211 | -80.82816 | 22185 ft | 361 kts | 187° |
| 2026-04-26 15:26 | 34.16713 | -80.82309 | 21776 ft | 368 kts | 168° |
| 2026-04-26 15:26 | 34.14260 | -80.81438 | 21446 ft | 362 kts | 169° |
| 2026-04-26 15:26 | 34.11861 | -80.80740 | 21069 ft | 357 kts | 172° |
| 2026-04-26 15:26 | 34.09434 | -80.80200 | 20692 ft | 352 kts | 175° |
| 2026-04-26 15:27 | 34.07019 | -80.79783 | 20317 ft | 347 kts | 177° |
| 2026-04-26 15:27 | 34.04642 | -80.79458 | 19943 ft | 341 kts | 178° |
| 2026-04-26 15:27 | 34.02286 | -80.79198 | 19580 ft | 336 kts | 179° |
| 2026-04-26 15:27 | 33.99921 | -80.78985 | 19328 ft | 348 kts | 180° |
| 2026-04-26 15:28 | 33.97444 | -80.78797 | 19096 ft | 363 kts | 181° |
| 2026-04-26 15:28 | 33.94908 | -80.78621 | 18851 ft | 368 kts | 181° |
| 2026-04-26 15:28 | 33.92348 | -80.78447 | 18601 ft | 367 kts | 181° |
| 2026-04-26 15:28 | 33.89794 | -80.78274 | 18349 ft | 366 kts | 181° |
| 2026-04-26 15:29 | 33.87292 | -80.78110 | 18101 ft | 364 kts | 181° |
| 2026-04-26 15:29 | 33.84760 | -80.77944 | 17851 ft | 363 kts | 181° |
| 2026-04-26 15:29 | 33.79743 | -80.77618 | 17352 ft | 360 kts | 181° |
| 2026-04-26 15:30 | 33.74750 | -80.77297 | 16850 ft | 357 kts | 180° |
| 2026-04-26 15:30 | 33.72273 | -80.77137 | 16600 ft | 356 kts | 180° |
| 2026-04-26 15:30 | 33.69823 | -80.76981 | 16351 ft | 354 kts | 180° |
| 2026-04-26 15:31 | 33.67355 | -80.76823 | 16100 ft | 353 kts | 180° |
| 2026-04-26 15:31 | 33.62510 | -80.76514 | 15594 ft | 340 kts | 180° |
| 2026-04-26 15:31 | 33.60182 | -80.76366 | 15339 ft | 330 kts | 180° |
| 2026-04-26 15:32 | 33.56461 | -80.76129 | 14914 ft | 314 kts | 180° |
| 2026-04-26 15:32 | 33.53590 | -80.75946 | 14571 ft | 304 kts | 180° |
| 2026-04-26 15:32 | 33.51489 | -80.75813 | 14320 ft | 302 kts | 180° |
| 2026-04-26 15:33 | 33.49395 | -80.75680 | 14073 ft | 301 kts | 180° |
| 2026-04-26 15:33 | 33.47293 | -80.75547 | 13821 ft | 300 kts | 180° |
| 2026-04-26 15:33 | 33.45221 | -80.75415 | 13572 ft | 298 kts | 180° |
| 2026-04-26 15:33 | 33.43146 | -80.75284 | 13322 ft | 297 kts | 180° |
| 2026-04-26 15:34 | 33.41109 | -80.75155 | 13075 ft | 296 kts | 180° |
| 2026-04-26 15:34 | 33.39059 | -80.75026 | 12825 ft | 295 kts | 180° |
| 2026-04-26 15:34 | 33.36983 | -80.74894 | 12571 ft | 293 kts | 180° |
| 2026-04-26 15:34 | 33.34973 | -80.74721 | 12285 ft | 290 kts | 174° |
| 2026-04-26 15:35 | 33.33067 | -80.73934 | 11913 ft | 291 kts | 157° |
| 2026-04-26 15:35 | 33.31273 | -80.72808 | 11574 ft | 294 kts | 153° |
| 2026-04-26 15:35 | 33.29488 | -80.71617 | 11222 ft | 302 kts | 152° |
| 2026-04-26 15:35 | 33.27651 | -80.70362 | 10849 ft | 303 kts | 152° |
| 2026-04-26 15:36 | 33.25831 | -80.69112 | 10478 ft | 301 kts | 152° |
| 2026-04-26 15:36 | 33.24085 | -80.67741 | 10074 ft | 300 kts | 139° |
| 2026-04-26 15:36 | 33.22870 | -80.65762 | 10014 ft | 299 kts | 119° |
| 2026-04-26 15:36 | 33.21991 | -80.63502 | 10005 ft | 300 kts | 114° |
| 2026-04-26 15:37 | 33.21182 | -80.61192 | 9998 ft | 300 kts | 112° |
| 2026-04-26 15:37 | 33.20402 | -80.58882 | 9991 ft | 300 kts | 112° |
| 2026-04-26 15:37 | 33.19626 | -80.56568 | 9996 ft | 300 kts | 112° |
| 2026-04-26 15:37 | 33.18848 | -80.54253 | 9993 ft | 300 kts | 112° |
| 2026-04-26 15:38 | 33.18069 | -80.51944 | 9994 ft | 300 kts | 112° |
| 2026-04-26 15:38 | 33.17287 | -80.49628 | 9990 ft | 300 kts | 112° |
| 2026-04-26 15:38 | 33.16518 | -80.47354 | 9988 ft | 300 kts | 112° |
| 2026-04-26 15:38 | 33.15737 | -80.45047 | 9987 ft | 300 kts | 112° |
| 2026-04-26 15:39 | 33.14954 | -80.42737 | 9986 ft | 300 kts | 112° |
| 2026-04-26 15:39 | 33.14166 | -80.40430 | 9983 ft | 300 kts | 113° |
| 2026-04-26 15:39 | 33.13012 | -80.38378 | 9984 ft | 300 kts | 134° |
| 2026-04-26 15:39 | 33.11979 | -80.37230 | 9986 ft | 299 kts | 140° |
| 2026-04-26 15:40 | 33.09858 | -80.35157 | 9984 ft | 298 kts | 142° |
| 2026-04-26 15:40 | 33.08233 | -80.33621 | 9979 ft | 298 kts | 143° |
| 2026-04-26 15:40 | 33.06607 | -80.32090 | 9978 ft | 298 kts | 143° |
| 2026-04-26 15:40 | 33.04983 | -80.30559 | 9976 ft | 293 kts | 143° |
| 2026-04-26 15:41 | 33.03418 | -80.29107 | 9965 ft | 278 kts | 144° |
| 2026-04-26 15:41 | 33.01915 | -80.27728 | 9810 ft | 270 kts | 144° |
| 2026-04-26 15:41 | 33.00430 | -80.26364 | 9432 ft | 267 kts | 144° |
| 2026-04-26 15:41 | 32.98957 | -80.25009 | 8953 ft | 270 kts | 143° |
| 2026-04-26 15:42 | 32.97476 | -80.23646 | 8404 ft | 266 kts | 143° |
| 2026-04-26 15:42 | 32.96039 | -80.22324 | 8011 ft | 257 kts | 143° |
| 2026-04-26 15:42 | 32.94648 | -80.21043 | 7630 ft | 248 kts | 143° |
| 2026-04-26 15:42 | 32.93296 | -80.19798 | 7181 ft | 245 kts | 143° |
| 2026-04-26 15:43 | 32.91950 | -80.18560 | 6695 ft | 243 kts | 143° |
| 2026-04-26 15:43 | 32.90624 | -80.17339 | 6226 ft | 241 kts | 143° |
| 2026-04-26 15:43 | 32.88010 | -80.14922 | 5287 ft | 238 kts | 142° |
| 2026-04-26 15:44 | 32.86707 | -80.13717 | 4814 ft | 237 kts | 142° |
| 2026-04-26 15:44 | 32.84126 | -80.11326 | 4034 ft | 231 kts | 141° |
| 2026-04-26 15:44 | 32.82890 | -80.10153 | 4009 ft | 222 kts | 141° |
| 2026-04-26 15:45 | 32.80602 | -80.07968 | 3992 ft | 202 kts | 141° |
| 2026-04-26 15:45 | 32.79362 | -80.07192 | 3963 ft | 204 kts | 159° |
| 2026-04-26 15:46 | 32.76570 | -80.06123 | 3516 ft | 219 kts | 162° |
| 2026-04-26 15:46 | 32.75115 | -80.05575 | 3230 ft | 221 kts | 162° |
| 2026-04-26 15:46 | 32.73638 | -80.05024 | 2934 ft | 223 kts | 162° |
| 2026-04-26 15:46 | 32.72662 | -80.04659 | 2736 ft | 223 kts | 162° |
| 2026-04-26 15:47 | 32.70983 | -80.03274 | 2252 ft | 223 kts | 125° |
| 2026-04-26 15:47 | 32.70701 | -79.99830 | 2034 ft | 210 kts | 82° |
| 2026-04-26 15:47 | 32.70847 | -79.98114 | 2015 ft | 207 kts | 82° |
| 2026-04-26 15:48 | 32.71067 | -79.96503 | 1961 ft | 193 kts | 69° |
| 2026-04-26 15:48 | 32.71776 | -79.95194 | 2017 ft | 180 kts | 51° |
| 2026-04-26 15:48 | 32.72643 | -79.94221 | 1960 ft | 172 kts | 30° |
| 2026-04-26 15:48 | 32.73748 | -79.93687 | 1981 ft | 171 kts | 16° |
| 2026-04-26 15:49 | 32.74917 | -79.93824 | 2013 ft | 169 kts | 345° |
| 2026-04-26 15:49 | 32.76040 | -79.94241 | 2011 ft | 169 kts | 343° |
| 2026-04-26 15:49 | 32.77162 | -79.94639 | 2002 ft | 167 kts | 343° |
| 2026-04-26 15:49 | 32.78230 | -79.95076 | 2024 ft | 160 kts | 339° |
| 2026-04-26 15:50 | 32.79219 | -79.95630 | 2011 ft | 155 kts | 333° |
| 2026-04-26 15:50 | 32.80145 | -79.96279 | 2001 ft | 151 kts | 329° |
| 2026-04-26 15:50 | 32.81008 | -79.96963 | 1985 ft | 148 kts | 327° |
| 2026-04-26 15:50 | 32.81857 | -79.97654 | 1777 ft | 148 kts | 327° |
| 2026-04-26 15:51 | 32.82688 | -79.98311 | 1568 ft | 140 kts | 328° |
| 2026-04-26 15:51 | 32.83510 | -79.98935 | 1414 ft | 139 kts | 329° |
| 2026-04-26 15:51 | 32.84318 | -79.99535 | 1207 ft | 138 kts | 330° |
| 2026-04-26 15:51 | 32.85131 | -80.00139 | 1012 ft | 138 kts | 330° |
| 2026-04-26 15:52 | 32.85939 | -80.00747 | 826 ft | 137 kts | 329° |
| 2026-04-26 15:52 | 32.86732 | -80.01350 | 636 ft | 133 kts | 329° |
| 2026-04-26 15:52 | 32.87497 | -80.01933 | 455 ft | 128 kts | 329° |
| 2026-04-26 15:52 | 32.87990 | -80.02306 | 348 ft | 126 kts | 330° |
| 2026-04-26 15:53 | 32.88968 | -80.03042 | 137 ft | 123 kts | 330° |
| 2026-04-26 15:53 | 32.89666 | -80.03576 | 65 ft | 115 kts | 329° |
| 2026-04-26 15:53 | 32.90267 | -80.04030 | 56 ft | 76 kts | 329° |
| 2026-04-26 15:53 | 32.90549 | -80.04239 | 56 ft | 33 kts | 326° |
| 2026-04-26 15:54 | 32.90710 | -80.04364 | 56 ft | 22 kts | 328° |
| 2026-04-26 15:54 | 32.90824 | -80.04419 | 56 ft | 15 kts | 12° |
| 2026-04-26 15:54 | 32.90865 | -80.04348 | 56 ft | 9 kts | 111° |
| 2026-04-26 15:54 | 32.90823 | -80.04291 | 56 ft | 11 kts | 137° |
| 2026-04-26 15:55 | 32.90752 | -80.04219 | 56 ft | 16 kts | 140° |
| 2026-04-26 15:55 | 32.90665 | -80.04131 | 56 ft | 16 kts | 139° |
| 2026-04-26 15:55 | 32.90587 | -80.04049 | 56 ft | 16 kts | 138° |
| 2026-04-26 15:55 | 32.90494 | -80.03950 | 56 ft | 19 kts | 138° |
| 2026-04-26 15:56 | 32.90404 | -80.03856 | 56 ft | 16 kts | 139° |
| 2026-04-26 15:56 | 32.90330 | -80.03780 | 56 ft | 13 kts | 139° |
| 2026-04-26 15:56 | 32.90264 | -80.03712 | 56 ft | 14 kts | 139° |
| 2026-04-26 15:56 | 32.90202 | -80.03636 | 56 ft | 12 kts | 126° |
| 2026-04-26 15:57 | 32.90162 | -80.03547 | 56 ft | 12 kts | 115° |
| 2026-04-26 15:57 | 32.90112 | -80.03485 | 56 ft | 10 kts | 165° |
| 2026-04-26 15:57 | 32.90031 | -80.03495 | 56 ft | 14 kts | 214° |
| 2026-04-26 15:57 | 32.90021 | -80.03549 | 56 ft | 9 kts | 277° |
| 2026-04-26 15:58 | 32.89950 | -80.03596 | 56 ft | 13 kts | 188° |
| 2026-04-26 15:58 | 32.89844 | -80.03609 | 56 ft | 16 kts | 184° |
| 2026-04-26 15:58 | 32.89736 | -80.03619 | 56 ft | 18 kts | 185° |
| 2026-04-26 15:58 | 32.89602 | -80.03634 | 56 ft | 19 kts | 185° |
| 2026-04-26 15:59 | 32.89478 | -80.03648 | 56 ft | 17 kts | 185° |
| 2026-04-26 15:59 | 32.89350 | -80.03661 | 56 ft | 18 kts | 184° |
| 2026-04-26 15:59 | 32.89234 | -80.03674 | 56 ft | 16 kts | 186° |
| 2026-04-26 15:59 | 32.89116 | -80.03688 | 56 ft | 17 kts | 185° |
| 2026-04-26 16:00 | 32.88991 | -80.03702 | 56 ft | 18 kts | 185° |
| 2026-04-26 16:00 | 32.88876 | -80.03709 | 56 ft | 15 kts | 180° |
| 2026-04-26 16:00 | 32.88778 | -80.03709 | 56 ft | 12 kts | 181° |
| 2026-04-26 16:00 | 32.88715 | -80.03706 | 56 ft | 7 kts | 175° |
| 2026-04-26 16:01 | 32.88675 | -80.03710 | 56 ft | 8 kts | 206° |
| 2026-04-26 16:01 | 32.88652 | -80.03738 | 56 ft | 3 kts | 231° |
| 2026-04-26 16:01 | 32.88648 | -80.03743 | 56 ft | 0 kts | 231° |